createdAt,value
2022-10-21T22:01:08.413Z,1003.01
2022-10-21T22:01:43.761Z,1003.00
2022-10-21T22:02:19.023Z,1003.03
2022-10-21T22:02:54.206Z,1003.00
2022-10-21T22:03:29.575Z,1002.97
2022-10-21T22:04:04.869Z,1002.96
2022-10-21T22:04:40.110Z,1002.96
2022-10-21T22:05:15.583Z,1002.97
2022-10-21T22:05:50.864Z,1002.99
2022-10-21T22:07:02.863Z,1002.95
2022-10-21T22:07:36.676Z,1002.92
2022-10-21T22:08:11.732Z,1002.92
2022-10-21T22:08:47.055Z,1002.95
2022-10-21T22:09:22.138Z,1002.94
2022-10-21T22:09:57.769Z,1002.91
2022-10-21T22:10:32.866Z,1002.95
2022-10-21T22:11:08.053Z,1002.93
2022-10-21T22:11:43.167Z,1002.96
2022-10-21T22:12:20.925Z,1002.95
2022-10-21T22:12:53.365Z,1002.93
2022-10-21T22:13:28.563Z,1002.91
2022-10-21T22:14:03.679Z,1002.94
2022-10-21T22:14:38.775Z,1002.94
2022-10-21T22:15:29.630Z,1002.94
2022-10-21T22:15:49.629Z,1002.97
2022-10-21T22:16:24.795Z,1002.96
2022-10-21T22:17:00.197Z,1002.98
2022-10-21T22:17:35.609Z,1002.98
2022-10-21T22:18:10.688Z,1002.94
2022-10-21T22:18:45.870Z,1002.96
2022-10-21T22:19:21.343Z,1002.96
2022-10-21T22:19:56.340Z,1002.96
2022-10-21T22:20:31.333Z,1002.91
2022-10-21T22:21:06.443Z,1002.95
2022-10-21T22:21:41.649Z,1002.98
2022-10-21T22:22:16.826Z,1002.94
2022-10-21T22:22:52.013Z,1002.93
2022-10-21T22:23:27.285Z,1002.94
2022-10-21T22:24:02.398Z,1002.97
2022-10-21T22:24:37.688Z,1002.99
2022-10-21T22:25:13.068Z,1002.99
2022-10-21T22:25:48.379Z,1003.02
2022-10-21T22:26:23.673Z,1003.03
2022-10-21T22:26:58.879Z,1002.97
2022-10-21T22:27:34.162Z,1002.94
2022-10-21T22:28:09.533Z,1002.92
2022-10-21T22:28:44.667Z,1002.89
2022-10-21T22:29:19.939Z,1002.95
2022-10-21T22:29:55.132Z,1002.92
2022-10-21T22:30:30.204Z,1002.89
2022-10-21T22:31:05.401Z,1002.90
2022-10-21T22:31:40.481Z,1002.91
2022-10-21T22:32:15.862Z,1002.90
2022-10-21T22:32:51.458Z,1002.92
2022-10-21T22:33:26.869Z,1002.93
2022-10-21T22:34:02.785Z,1002.91
2022-10-21T22:34:37.848Z,1002.88
2022-10-21T22:35:13.232Z,1002.90
2022-10-21T22:35:48.531Z,1002.90
2022-10-21T22:36:23.827Z,1002.88
2022-10-21T22:36:59.123Z,1002.90
2022-10-21T22:37:34.312Z,1002.93
2022-10-21T22:38:09.614Z,1002.89
2022-10-21T22:38:44.695Z,1002.92
2022-10-21T22:39:20.095Z,1002.91
2022-10-21T22:39:55.166Z,1002.91
2022-10-21T22:40:30.271Z,1002.91
2022-10-21T22:41:08.602Z,1002.90
2022-10-21T22:41:41.076Z,1002.91
2022-10-21T22:42:16.263Z,1002.91
2022-10-21T22:42:51.532Z,1002.88
2022-10-21T22:43:26.641Z,1002.90
2022-10-21T22:44:01.825Z,1002.90
2022-10-21T22:44:37.210Z,1002.91
2022-10-21T22:45:12.494Z,1002.94
2022-10-21T22:45:48.172Z,1002.96
2022-10-21T22:46:34.342Z,1002.92
2022-10-21T22:46:58.593Z,1002.98
2022-10-21T22:47:33.895Z,1002.98
2022-10-21T22:48:09.106Z,1003.00
2022-10-21T22:48:44.335Z,1003.00
2022-10-21T22:49:19.631Z,1002.97
2022-10-21T22:49:54.932Z,1002.95
2022-10-21T22:50:30.108Z,1002.97
2022-10-21T22:51:05.419Z,1002.97
2022-10-21T22:51:40.526Z,1002.93
2022-10-21T22:52:15.899Z,1002.95
2022-10-21T22:52:51.495Z,1002.92
2022-10-21T22:53:26.684Z,1002.93
2022-10-21T22:54:02.080Z,1002.94
2022-10-21T22:54:49.079Z,1002.96
2022-10-21T22:55:12.848Z,1002.94
2022-10-21T22:55:47.854Z,1002.90
2022-10-21T22:56:23.242Z,1002.90
2022-10-21T22:56:58.452Z,1002.92
2022-10-21T22:57:33.932Z,1002.93
2022-10-21T22:58:08.941Z,1002.90
2022-10-21T22:58:44.248Z,1002.89
2022-10-21T22:59:20.050Z,1002.91
2022-10-21T22:59:55.247Z,1002.87
2022-10-21T23:00:30.522Z,1002.88
2022-10-21T23:01:05.713Z,1002.85
2022-10-21T23:01:41.014Z,1002.85
2022-10-21T23:02:16.265Z,1002.89
2022-10-21T23:02:51.506Z,1002.90
2022-10-21T23:03:27.084Z,1002.90
2022-10-21T23:04:02.185Z,1002.86
2022-10-21T23:04:37.873Z,1002.91
2022-10-21T23:05:12.863Z,1002.84
2022-10-21T23:05:48.355Z,1002.85
2022-10-21T23:06:23.757Z,1002.87
2022-10-21T23:06:59.155Z,1002.82
2022-10-21T23:07:34.358Z,1002.83
2022-10-21T23:08:09.439Z,1002.82
2022-10-21T23:08:44.712Z,1002.90
2022-10-21T23:09:19.975Z,1002.87
2022-10-21T23:09:55.065Z,1002.87
2022-10-21T23:10:30.489Z,1002.88
2022-10-21T23:11:05.799Z,1002.88
2022-10-21T23:11:41.173Z,1002.91
2022-10-21T23:12:16.660Z,1002.91
2022-10-21T23:12:51.976Z,1002.85
2022-10-21T23:13:27.470Z,1002.87
2022-10-21T23:14:07.856Z,1002.88
2022-10-21T23:14:37.952Z,1002.88
2022-10-21T23:15:13.812Z,1002.90
2022-10-21T23:15:49.096Z,1002.88
2022-10-21T23:16:24.418Z,1002.88
2022-10-21T23:16:59.636Z,1002.88
2022-10-21T23:17:35.020Z,1002.89
2022-10-21T23:18:10.540Z,1002.86
2022-10-21T23:18:45.723Z,1002.87
2022-10-21T23:19:20.735Z,1002.86
2022-10-21T23:19:55.923Z,1002.84
2022-10-21T23:20:31.418Z,1002.83
2022-10-21T23:21:06.624Z,1002.85
2022-10-21T23:21:41.923Z,1002.86
2022-10-21T23:22:17.301Z,1002.85
2022-10-21T23:22:52.591Z,1002.87
2022-10-21T23:23:27.808Z,1002.87
2022-10-21T23:24:02.787Z,1002.86
2022-10-21T23:24:38.137Z,1002.84
2022-10-21T23:25:13.669Z,1002.84
2022-10-21T23:25:49.059Z,1002.83
2022-10-21T23:26:24.160Z,1002.86
2022-10-21T23:27:01.365Z,1002.87
2022-10-21T23:27:34.444Z,1002.89
2022-10-21T23:28:09.934Z,1002.89
2022-10-21T23:28:44.976Z,1002.90
2022-10-21T23:29:20.069Z,1002.93
2022-10-21T23:29:55.042Z,1002.92
2022-10-21T23:30:30.332Z,1002.94
2022-10-21T23:31:05.532Z,1002.97
2022-10-21T23:31:40.922Z,1002.96
2022-10-21T23:32:16.114Z,1002.95
2022-10-21T23:32:51.590Z,1002.97
2022-10-21T23:33:26.881Z,1002.94
2022-10-21T23:34:02.198Z,1002.96
2022-10-21T23:34:37.382Z,1002.99
2022-10-21T23:35:12.485Z,1002.96
2022-10-21T23:35:47.661Z,1002.97
2022-10-21T23:36:22.972Z,1002.98
2022-10-21T23:36:58.050Z,1002.96
2022-10-21T23:37:33.242Z,1002.99
2022-10-21T23:38:08.339Z,1002.99
2022-10-21T23:38:43.430Z,1002.96
2022-10-21T23:39:18.741Z,1003.02
2022-10-21T23:39:54.209Z,1003.01
2022-10-21T23:40:29.393Z,1002.99
2022-10-21T23:41:04.898Z,1002.99
2022-10-21T23:41:39.889Z,1003.03
2022-10-21T23:42:15.190Z,1003.01
2022-10-21T23:42:50.266Z,1003.01
2022-10-21T23:43:25.471Z,1003.01
2022-10-21T23:44:00.862Z,1003.01
2022-10-21T23:44:35.868Z,1003.01
2022-10-21T23:45:11.263Z,1003.01
2022-10-21T23:45:46.577Z,1002.97
2022-10-21T23:46:21.939Z,1003.02
2022-10-21T23:46:57.063Z,1003.01
2022-10-21T23:47:32.360Z,1002.99
2022-10-21T23:48:07.496Z,1002.97
2022-10-21T23:48:42.894Z,1002.97
2022-10-21T23:49:17.984Z,1002.97
2022-10-21T23:49:53.083Z,1003.00
2022-10-21T23:50:28.628Z,1003.01
2022-10-21T23:51:03.909Z,1003.00
2022-10-21T23:51:39.392Z,1003.01
2022-10-21T23:52:14.890Z,1003.05
2022-10-21T23:52:50.376Z,1003.06
2022-10-21T23:53:25.382Z,1003.09
2022-10-21T23:54:00.364Z,1003.10
2022-10-21T23:54:35.545Z,1003.13
2022-10-21T23:55:10.679Z,1003.17
2022-10-21T23:55:46.551Z,1003.21
2022-10-21T23:56:21.548Z,1003.21
2022-10-21T23:56:56.611Z,1003.27
2022-10-21T23:57:31.913Z,1003.23
2022-10-21T23:58:07.000Z,1003.29
2022-10-21T23:58:42.167Z,1003.27
2022-10-21T23:59:17.373Z,1003.31
2022-10-21T23:59:52.765Z,1003.32
